createdAt,value
2018-06-08T00:03:08.160Z,"    0"
2018-06-08T00:08:03.792Z,"    0"
2018-06-08T00:13:00.100Z,"    0"
2018-06-08T00:17:56.978Z,"    0"
2018-06-08T00:22:52.642Z,"    0"
2018-06-08T00:27:48.300Z,"    0"
2018-06-08T00:32:44.049Z,"    0"
2018-06-08T00:37:40.254Z,"    0"
2018-06-08T00:42:37.211Z,"    0"
2018-06-08T00:47:32.959Z,"    0"
2018-06-08T00:52:28.789Z,"    0"
2018-06-08T00:57:24.757Z,"    0"
2018-06-08T01:02:20.815Z,"    0"
2018-06-08T01:07:17.068Z,"    0"
2018-06-08T01:12:14.037Z,"    0"
2018-06-08T01:17:09.530Z,"    0"
2018-06-08T01:22:05.526Z,"    0"
2018-06-08T01:27:02.762Z,"    0"
2018-06-08T01:31:58.139Z,"    0"
2018-06-08T01:36:54.850Z,"    0"
2018-06-08T01:41:51.006Z,"    0"
2018-06-08T01:46:46.788Z,"    0"
2018-06-08T01:51:42.707Z,"    0"
2018-06-08T01:56:38.991Z,"    0"
2018-06-08T02:01:35.701Z,"    0"
2018-06-08T02:06:31.074Z,"    0"
2018-06-08T02:11:27.184Z,"    0"
2018-06-08T02:16:23.882Z,"    0"
2018-06-08T02:21:19.314Z,"    0"
2018-06-08T02:26:15.069Z,"    0"
2018-06-08T02:31:10.855Z,"    0"
2018-06-08T02:36:06.587Z,"    0"
2018-06-08T02:41:02.856Z,"    0"
2018-06-08T02:46:00.120Z,"    0"
2018-06-08T02:50:57.734Z,"    0"
2018-06-08T02:55:53.199Z,"    0"
2018-06-08T03:00:49.696Z,"    5"
2018-06-08T03:05:45.447Z,"    5"
2018-06-08T03:10:41.861Z,"    5"
2018-06-08T03:15:38.347Z,"    5"
2018-06-08T03:20:34.104Z,"   10"
2018-06-08T03:25:30.490Z,"   10"
2018-06-08T03:30:26.730Z,"   15"
2018-06-08T03:35:23.051Z,"   15"
2018-06-08T03:40:19.025Z,"   20"
2018-06-08T03:45:15.115Z,"   20"
2018-06-08T03:50:10.948Z,"   25"
2018-06-08T03:55:06.861Z,"   30"
2018-06-08T04:00:02.726Z,"   35"
2018-06-08T04:04:58.898Z,"   35"
2018-06-08T04:09:54.919Z,"   30"
2018-06-08T04:14:50.665Z,"   25"
2018-06-08T04:19:47.823Z,"   20"
2018-06-08T04:24:43.435Z,"   15"
2018-06-08T04:29:39.518Z,"   15"
2018-06-08T04:34:35.661Z,"   15"
2018-06-08T04:39:33.060Z,"   15"
2018-06-08T04:44:28.747Z,"   20"
2018-06-08T04:49:24.407Z,"   30"
2018-06-08T04:54:20.395Z,"   40"
2018-06-08T04:59:16.332Z,"   55"
2018-06-08T05:04:12.300Z,"   65"
2018-06-08T05:09:09.500Z,"   95"
2018-06-08T05:14:06.432Z,"  105"
2018-06-08T05:19:02.673Z,"   90"
2018-06-08T05:23:58.694Z,"   75"
2018-06-08T05:28:55.563Z,"   80"
2018-06-08T05:33:52.252Z,"   90"
2018-06-08T05:38:48.017Z,"  105"
2018-06-08T05:43:44.288Z,"  140"
2018-06-08T05:48:41.435Z,"  150"
2018-06-08T05:53:37.240Z,"  155"
2018-06-08T05:58:33.389Z,"  160"
2018-06-08T06:03:29.236Z,"  180"
2018-06-08T06:08:25.524Z,"  185"
2018-06-08T06:13:21.441Z,"  185"
2018-06-08T06:18:18.434Z,"  170"
2018-06-08T06:23:15.040Z,"  155"
2018-06-08T06:28:10.606Z,"  160"
2018-06-08T06:33:07.783Z,"  180"
2018-06-08T06:38:03.521Z,"  175"
2018-06-08T06:42:59.943Z,"  170"
2018-06-08T06:47:56.866Z,"  185"
2018-06-08T06:52:52.740Z,"  220"
2018-06-08T06:57:49.382Z,"  245"
2018-06-08T07:02:45.818Z,"  215"
2018-06-08T07:07:41.898Z,"  190"
2018-06-08T07:12:38.327Z,"  195"
2018-06-08T07:17:34.623Z,"  210"
2018-06-08T07:22:31.025Z,"  215"
2018-06-08T07:27:27.229Z,"  200"
2018-06-08T07:32:23.126Z,"  200"
2018-06-08T07:37:19.133Z,"  205"
2018-06-08T07:42:15.229Z,"  220"
2018-06-08T07:47:11.305Z,"  230"
2018-06-08T07:52:07.351Z,"  205"
2018-06-08T07:57:03.289Z,"  195"
2018-06-08T08:01:59.134Z,"  185"
2018-06-08T08:06:55.032Z,"  190"
2018-06-08T08:11:51.092Z,"  195"
2018-06-08T08:16:47.716Z,"  195"
2018-06-08T08:21:43.656Z,"  175"
2018-06-08T08:26:40.239Z,"  150"
2018-06-08T08:31:35.725Z,"  125"
2018-06-08T08:36:31.750Z,"  120"
2018-06-08T08:41:27.613Z,"  115"
2018-06-08T08:46:23.840Z,"  120"
2018-06-08T08:51:19.830Z,"  145"
2018-06-08T08:56:16.077Z,"  175"
2018-06-08T09:01:12.535Z,"  155"
2018-06-08T09:06:08.514Z,"  170"
2018-06-08T09:11:04.752Z,"  215"
2018-06-08T09:16:01.301Z,"  225"
2018-06-08T09:20:57.934Z,"  220"
2018-06-08T09:25:54.095Z,"  230"
2018-06-08T09:30:50.381Z,"  210"
2018-06-08T09:35:47.622Z,"  195"
2018-06-08T09:40:44.809Z,"  185"
2018-06-08T09:45:40.390Z,"  195"
2018-06-08T09:50:37.504Z,"  200"
2018-06-08T09:55:33.174Z,"  190"
2018-06-08T10:00:29.901Z,"  190"
2018-06-08T10:05:25.495Z,"  190"
2018-06-08T10:10:21.450Z,"  150"
2018-06-08T10:15:17.326Z,"  125"
2018-06-08T10:20:13.096Z,"  105"
2018-06-08T10:25:08.871Z,"  110"
2018-06-08T10:30:04.720Z,"  105"
2018-06-08T10:35:00.503Z,"  100"
2018-06-08T10:39:56.949Z,"   85"
2018-06-08T10:44:53.010Z,"   70"
2018-06-08T10:49:49.648Z,"   60"
2018-06-08T10:54:45.263Z,"   45"
2018-06-08T10:59:41.002Z,"   40"
2018-06-08T11:04:36.942Z,"   40"
2018-06-08T11:09:32.842Z,"   40"
2018-06-08T11:14:28.561Z,"   35"
2018-06-08T11:19:24.425Z,"   35"
2018-06-08T11:24:20.095Z,"   35"
2018-06-08T11:29:15.693Z,"   15"
2018-06-08T11:34:11.699Z,"   10"
2018-06-08T11:39:07.435Z,"   15"
2018-06-08T11:44:03.390Z,"   20"
2018-06-08T11:48:59.214Z,"   20"
2018-06-08T11:53:55.225Z,"   20"
2018-06-08T11:58:51.857Z,"   20"
2018-06-08T12:03:47.230Z,"   30"
2018-06-08T12:08:43.573Z,"   55"
2018-06-08T12:13:39.357Z,"   95"
2018-06-08T12:18:35.813Z,"  120"
2018-06-08T12:23:32.354Z,"  130"
2018-06-08T12:28:28.409Z,"  125"
2018-06-08T12:33:24.702Z,"  120"
2018-06-08T12:38:20.628Z,"  125"
2018-06-08T12:43:17.699Z,"  125"
2018-06-08T12:48:13.990Z,"  140"
2018-06-08T12:53:10.174Z,"  155"
2018-06-08T12:58:07.484Z,"  150"
2018-06-08T13:03:03.863Z,"  130"
2018-06-08T13:07:59.390Z,"  120"
2018-06-08T13:12:55.161Z,"  150"
2018-06-08T13:17:51.194Z,"  190"
2018-06-08T13:22:46.883Z,"  285"
2018-06-08T13:27:43.320Z,"  340"
2018-06-08T13:32:39.689Z,"  280"
2018-06-08T13:37:36.341Z,"  365"
2018-06-08T13:42:33.051Z,"  425"
2018-06-08T13:47:29.437Z,"  440"
2018-06-08T13:52:26.763Z,"  400"
2018-06-08T13:57:22.667Z,"  395"
2018-06-08T14:02:18.885Z,"  410"
2018-06-08T14:07:15.118Z,"  340"
2018-06-08T14:12:11.021Z,"  290"
2018-06-08T14:17:07.266Z,"  315"
2018-06-08T14:22:03.168Z,"  300"
2018-06-08T14:26:59.843Z,"  235"
2018-06-08T14:31:56.293Z,"  255"
2018-06-08T14:36:51.732Z,"  215"
2018-06-08T14:41:47.443Z,"  205"
2018-06-08T14:46:44.722Z,"  205"
2018-06-08T14:51:40.468Z,"  265"
2018-06-08T14:56:37.756Z,"  265"
2018-06-08T15:01:33.767Z,"  260"
2018-06-08T15:06:29.786Z,"  230"
2018-06-08T15:11:25.803Z,"  225"
2018-06-08T15:16:21.763Z,"  225"
2018-06-08T15:21:17.981Z,"  265"
2018-06-08T15:26:14.922Z,"  250"
2018-06-08T15:31:10.966Z,"  225"
2018-06-08T15:36:07.865Z,"  200"
2018-06-08T15:41:04.893Z,"  175"
2018-06-08T15:46:01.498Z,"  160"
2018-06-08T15:50:58.012Z,"  180"
2018-06-08T15:55:53.645Z,"  165"
2018-06-08T16:00:50.744Z,"  155"
2018-06-08T16:05:47.570Z,"  145"
2018-06-08T16:10:43.179Z,"  145"
2018-06-08T16:15:39.108Z,"  145"
2018-06-08T16:20:35.200Z,"  170"
2018-06-08T16:25:31.313Z,"  180"
2018-06-08T16:30:27.284Z,"  145"
2018-06-08T16:35:23.588Z,"  135"
2018-06-08T16:40:19.442Z,"  120"
2018-06-08T16:45:15.252Z,"  115"
2018-06-08T16:50:11.111Z,"  115"
2018-06-08T16:55:06.834Z,"  115"
2018-06-08T17:00:02.789Z,"  115"
2018-06-08T17:04:58.816Z,"  110"
2018-06-08T17:09:55.103Z,"  120"
2018-06-08T17:14:51.037Z,"  155"
2018-06-08T17:19:48.068Z,"  150"
2018-06-08T17:24:44.015Z,"  125"
2018-06-08T17:29:40.789Z,"  110"
2018-06-08T17:34:36.494Z,"  130"
2018-06-08T17:39:32.501Z,"  120"
2018-06-08T17:44:28.471Z,"  105"
2018-06-08T17:49:24.878Z,"   75"
2018-06-08T17:54:20.752Z,"   60"
2018-06-08T17:59:17.733Z,"   65"
2018-06-08T18:04:13.524Z,"   55"
2018-06-08T18:09:09.244Z,"   40"
2018-06-08T18:14:05.064Z,"   40"
2018-06-08T18:19:01.731Z,"   40"
2018-06-08T18:23:57.666Z,"   45"
2018-06-08T18:28:53.250Z,"   40"
2018-06-08T18:33:49.274Z,"   40"
2018-06-08T18:38:44.965Z,"   35"
2018-06-08T18:43:41.250Z,"   35"
2018-06-08T18:48:37.009Z,"   35"
2018-06-08T18:53:32.818Z,"   30"
2018-06-08T18:58:28.660Z,"   30"
2018-06-08T19:03:24.295Z,"   25"
2018-06-08T19:08:20.269Z,"   20"
2018-06-08T19:13:15.897Z,"   15"
2018-06-08T19:18:13.472Z,"   15"
2018-06-08T19:23:09.025Z,"   10"
2018-06-08T19:28:04.817Z,"   10"
2018-06-08T19:33:01.005Z,"    5"
2018-06-08T19:37:56.991Z,"    5"
2018-06-08T19:42:52.918Z,"    0"
2018-06-08T19:47:49.352Z,"    0"
2018-06-08T19:52:45.400Z,"    0"
2018-06-08T19:57:41.325Z,"    0"
2018-06-08T20:02:38.334Z,"    0"
2018-06-08T20:07:34.092Z,"    0"
2018-06-08T20:12:30.951Z,"    0"
2018-06-08T20:17:26.578Z,"    0"
2018-06-08T20:22:22.516Z,"    0"
2018-06-08T20:27:18.355Z,"    0"
2018-06-08T20:32:15.171Z,"    0"
2018-06-08T20:37:10.877Z,"    0"
2018-06-08T20:42:07.745Z,"    0"
2018-06-08T20:47:04.516Z,"    0"
2018-06-08T20:52:00.166Z,"    0"
2018-06-08T20:56:56.322Z,"    0"
2018-06-08T21:01:52.072Z,"    0"
2018-06-08T21:06:49.400Z,"    0"
2018-06-08T21:11:45.962Z,"    0"
2018-06-08T21:16:41.727Z,"    0"
2018-06-08T21:21:37.738Z,"    0"
2018-06-08T21:26:34.703Z,"    0"
2018-06-08T21:31:30.261Z,"    0"
2018-06-08T21:36:26.110Z,"    0"
2018-06-08T21:41:22.201Z,"    0"
2018-06-08T21:46:17.954Z,"    0"
2018-06-08T21:51:14.004Z,"    0"
2018-06-08T21:56:09.951Z,"    0"
2018-06-08T22:01:05.869Z,"    0"
2018-06-08T22:06:01.458Z,"    0"
2018-06-08T22:10:58.317Z,"    0"
2018-06-08T22:15:54.907Z,"    0"
2018-06-08T22:20:50.488Z,"    0"
2018-06-08T22:25:47.325Z,"    0"
2018-06-08T22:30:43.296Z,"    0"
2018-06-08T22:35:39.108Z,"    0"
2018-06-08T22:40:35.883Z,"    0"
2018-06-08T22:45:31.699Z,"    0"
2018-06-08T22:50:27.570Z,"    0"
2018-06-08T22:55:23.588Z,"    0"
2018-06-08T23:00:19.407Z,"    0"
2018-06-08T23:05:16.186Z,"    0"
2018-06-08T23:10:11.844Z,"    0"
2018-06-08T23:15:07.774Z,"    0"
2018-06-08T23:20:03.626Z,"    0"
2018-06-08T23:25:00.775Z,"    0"
2018-06-08T23:29:56.344Z,"    0"
2018-06-08T23:34:52.473Z,"    0"
2018-06-08T23:39:49.043Z,"    0"
2018-06-08T23:44:45.421Z,"    0"
2018-06-08T23:49:41.182Z,"    0"
2018-06-08T23:54:37.116Z,"    0"
2018-06-08T23:59:33.345Z,"    0"
